Wednesday, October 17, 2018, 12:06 PM EDT
Back to Local

KSNC, Chester, Chester Airport

Location: Chester, CT, United States Lat: 41.384
Local Time: 12:06 PM EDT (16:06 GMT) Lon: -72.506
Time Zone: US/Eastern Elev: 416 ft

Show me the last for .
Show Decoded

2018-10-17 11:35 METAR KSNC 171535Z AUTO 28007G13KT 220V310 10SM CLR 14/04 A2989 RMK AO2 =
2018-10-17 11:15 METAR KSNC 171515Z AUTO 25007KT 210V290 10SM CLR 13/03 A2990 RMK AO2 =
2018-10-17 10:55 METAR KSNC 171455Z AUTO 26007KT 230V290 10SM CLR 12/03 A2991 RMK AO2 =
2018-10-17 10:35 METAR KSNC 171435Z AUTO VRB06G13KT 10SM CLR 12/03 A2992 RMK AO2 =
2018-10-17 10:15 METAR KSNC 171415Z AUTO 26008G14KT 220V290 10SM CLR 11/03 A2992 RMK AO2 =
2018-10-17 09:55 METAR KSNC 171355Z AUTO VRB06KT 10SM CLR 11/03 A2993 RMK AO2 =
2018-10-17 09:35 METAR KSNC 171335Z AUTO VRB06KT 10SM CLR 11/03 A2993 RMK AO2 =
2018-10-17 09:15 METAR KSNC 171315Z AUTO 24009KT 220V280 10SM CLR 10/03 A2994 RMK AO2 =
2018-10-17 08:55 METAR KSNC 171255Z AUTO 24006KT 10SM CLR 09/03 A2994 RMK AO2 =
2018-10-17 08:35 METAR KSNC 171235Z AUTO 24006KT 10SM CLR 08/03 A2994 RMK AO2 =
2018-10-17 08:15 METAR KSNC 171215Z AUTO 23006KT 10SM CLR 06/03 A2994 RMK AO2 =
2018-10-17 07:55 METAR KSNC 171155Z AUTO 23007KT 10SM CLR 06/03 A2994 RMK AO2 =
2018-10-17 07:35 METAR KSNC 171135Z AUTO 24005KT 10SM CLR 05/03 A2994 RMK AO2 =
2018-10-17 07:15 METAR KSNC 171115Z AUTO 24004KT 10SM CLR 05/03 A2995 RMK AO2 =
2018-10-17 06:55 METAR KSNC 171055Z AUTO VRB05KT 10SM CLR 06/03 A2995 RMK AO2 =
2018-10-17 06:35 METAR KSNC 171035Z AUTO 25006KT 10SM CLR 05/03 A2995 RMK AO2 =
2018-10-17 06:15 METAR KSNC 171015Z AUTO 26005KT 10SM CLR 06/03 A2995 RMK AO2 =
2018-10-17 05:55 METAR KSNC 170955Z AUTO 26004KT 10SM CLR 06/03 A2995 RMK AO2 =
2018-10-17 05:35 METAR KSNC 170935Z AUTO 25004KT 10SM CLR 06/03 A2996 RMK AO2 =
2018-10-17 05:15 METAR KSNC 170915Z AUTO 25005KT 10SM CLR 06/03 A2997 RMK AO2 =
2018-10-17 04:55 METAR KSNC 170855Z AUTO 24004KT 10SM CLR 06/03 A2997 RMK AO2 =
2018-10-17 04:35 METAR KSNC 170835Z AUTO 26004KT 10SM CLR 06/03 A2997 RMK AO2 =
2018-10-17 04:15 METAR KSNC 170815Z AUTO VRB04KT 10SM CLR 06/03 A2998 RMK AO2 =
2018-10-17 03:55 METAR KSNC 170755Z AUTO 26003KT 10SM CLR 06/03 A2998 RMK AO2 =
2018-10-17 03:35 METAR KSNC 170735Z AUTO 24003KT 10SM CLR 06/03 A2999 RMK AO2 =
2018-10-17 03:15 METAR KSNC 170715Z AUTO 25004KT 10SM CLR 06/03 A2999 RMK AO2 =
2018-10-17 02:55 METAR KSNC 170655Z AUTO 00000KT 10SM CLR 06/03 A3000 RMK AO2 =
2018-10-17 02:35 METAR KSNC 170635Z AUTO 00000KT 10SM CLR 06/03 A3000 RMK AO2 =
2018-10-17 02:15 METAR KSNC 170615Z AUTO 00000KT 10SM CLR 06/03 A3001 RMK AO2 =
2018-10-17 01:55 METAR KSNC 170555Z AUTO 26004KT 10SM CLR 06/03 A3002 RMK AO2 =
2018-10-17 01:35 METAR KSNC 170535Z AUTO 26005KT 10SM CLR 07/03 A3002 RMK AO2 =
2018-10-17 01:15 METAR KSNC 170515Z AUTO 27005KT 10SM CLR 07/03 A3002 RMK AO2 =
2018-10-17 00:55 METAR KSNC 170455Z AUTO VRB06KT 10SM CLR 07/03 A3002 RMK AO2 =
2018-10-16 23:55 METAR KSNC 170355Z AUTO 26004KT 10SM CLR 07/03 A3003 RMK AO2 =
2018-10-16 23:35 METAR KSNC 170335Z AUTO 27003KT 10SM CLR 07/03 A3003 RMK AO2 =
2018-10-16 23:15 METAR KSNC 170315Z AUTO 27004KT 10SM CLR 08/03 A3004 RMK AO2 =
2018-10-16 22:55 METAR KSNC 170255Z AUTO 26005KT 10SM CLR 08/02 A3004 RMK AO2 =
2018-10-16 22:35 METAR KSNC 170235Z AUTO 25005KT 10SM CLR 08/02 A3004 RMK AO2 =
2018-10-16 22:15 METAR KSNC 170215Z AUTO 26004KT 10SM CLR 08/02 A3004 RMK AO2 =
2018-10-16 21:55 METAR KSNC 170155Z AUTO 27004KT 10SM CLR 08/02 A3004 RMK AO2 =
2018-10-16 21:35 METAR KSNC 170135Z AUTO 26003KT 10SM CLR 08/02 A3004 RMK AO2 =
2018-10-16 21:15 METAR KSNC 170115Z AUTO 00000KT 10SM CLR 07/02 A3004 RMK AO2 =
2018-10-16 20:55 METAR KSNC 170055Z AUTO 00000KT 10SM CLR 07/02 A3005 RMK AO2 =
2018-10-16 20:35 METAR KSNC 170035Z AUTO 26004KT 10SM CLR 08/02 A3005 RMK AO2 =
2018-10-16 20:15 METAR KSNC 170015Z AUTO 00000KT 10SM CLR 08/02 A3005 RMK AO2 =
2018-10-16 19:55 METAR KSNC 162355Z AUTO 00000KT 10SM CLR 08/02 A3005 RMK AO2 =
2018-10-16 19:35 METAR KSNC 162335Z AUTO VRB04KT 10SM CLR 08/02 A3005 RMK AO2 =
2018-10-16 19:15 METAR KSNC 162315Z AUTO 26004KT 10SM CLR 08/02 A3004 RMK AO2 =
2018-10-16 18:55 METAR KSNC 162255Z AUTO 25004KT 10SM CLR 08/02 A3004 RMK AO2 =
2018-10-16 18:35 METAR KSNC 162235Z AUTO 24004KT 10SM CLR 09/03 A3004 RMK AO2 =
2018-10-16 18:15 METAR KSNC 162215Z AUTO 23004KT 10SM CLR 09/03 A3003 RMK AO2 =
2018-10-16 17:55 METAR KSNC 162155Z AUTO 22003KT 10SM CLR 10/02 A3003 RMK AO2 =
2018-10-16 17:35 METAR KSNC 162135Z AUTO VRB03KT 10SM CLR 11/02 A3002 RMK AO2 =
2018-10-16 17:15 METAR KSNC 162115Z AUTO 22004KT 10SM CLR 11/02 A3002 RMK AO2 =
2018-10-16 16:55 METAR KSNC 162055Z AUTO VRB05KT 10SM CLR 12/01 A3002 RMK AO2 =
2018-10-16 16:35 METAR KSNC 162035Z AUTO VRB04KT 10SM CLR 13/01 A3003 RMK AO2 =
2018-10-16 16:15 METAR KSNC 162015Z AUTO VRB04KT 10SM CLR 13/01 A3004 RMK AO2 =
2018-10-16 15:55 METAR KSNC 161955Z AUTO VRB04KT 10SM CLR 13/01 A3003 RMK AO2 =
2018-10-16 15:35 METAR KSNC 161935Z AUTO 27004KT 10SM CLR 13/00 A3004 RMK AO2 =
2018-10-16 15:15 METAR KSNC 161915Z AUTO VRB05KT 10SM CLR 13/00 A3004 RMK AO2 =
2018-10-16 14:55 METAR KSNC 161855Z AUTO 00000KT 10SM CLR 13/M00 A3004 RMK AO2 =
2018-10-16 14:35 METAR KSNC 161835Z AUTO 30005G11KT 10SM CLR 12/M00 A3004 RMK AO2 =
2018-10-16 14:15 METAR KSNC 161815Z AUTO 32009G15KT 10SM CLR 13/M00 A3005 RMK AO2 =
2018-10-16 13:55 METAR KSNC 161755Z AUTO 31006G12KT 10SM CLR 12/M00 A3006 RMK AO2 =
2018-10-16 13:35 METAR KSNC 161735Z AUTO 29006G12KT 10SM CLR 12/M00 A3006 RMK AO2 =
2018-10-16 13:15 METAR KSNC 161715Z AUTO 30006G12KT 10SM CLR 12/M00 A3006 RMK AO2 =
2018-10-16 12:55 METAR KSNC 161655Z AUTO 30008G15KT 10SM CLR 12/M00 A3007 RMK AO2 =
2018-10-16 12:35 METAR KSNC 161635Z AUTO 30007KT 260V340 10SM CLR 11/M01 A3009 RMK AO2 =
2018-10-16 12:15 METAR KSNC 161615Z AUTO 31007G15KT 270V340 10SM CLR 11/M01 A3009 RMK AO2 =

Support USWX by starting your Amazon purchase here.